Time;durP1;ratioP1;P1;durP2;ratioP2;P2;SDS_P1;SDS_P2;PMS_P1;PMS_P2;Temp;Humidity;BMP_temperature;BMP_pressure;BME280_temperature;BME280_humidity;BME280_pressure;Samples;Min_cycle;Max_cycle;Signal;HPM_P1;HPM_P2
2021/07/23 00:01:46;;;;;;;11.15;5.00;;;24.50;99.90;;;;;;5044274;28;20254;-78
2021/07/23 00:04:13;;;;;;;18.20;5.65;;;24.60;99.90;;;;;;5028307;28;20249;-77
2021/07/23 00:06:39;;;;;;;13.43;5.63;;;24.50;99.90;;;;;;5041891;28;20210;-79
2021/07/23 00:09:05;;;;;;;10.57;5.40;;;24.50;99.90;;;;;;5039706;28;20199;-77
2021/07/23 00:11:31;;;;;;;12.30;5.28;;;24.60;99.90;;;;;;5040270;28;20240;-77
2021/07/23 00:13:59;;;;;;;13.02;4.97;;;24.50;99.90;;;;;;5042211;28;20215;-78
2021/07/23 00:16:25;;;;;;;9.73;5.18;;;24.50;99.90;;;;;;5025033;28;20649;-75
2021/07/23 00:18:51;;;;;;;10.38;4.93;;;24.60;99.90;;;;;;5040248;28;20237;-75
2021/07/23 00:21:18;;;;;;;10.88;4.70;;;24.50;99.90;;;;;;5033212;28;20751;-76
2021/07/23 00:23:45;;;;;;;12.05;4.75;;;24.40;99.90;;;;;;5041943;28;20308;-79
2021/07/23 00:26:13;;;;;;;14.93;4.63;;;24.40;99.90;;;;;;5028362;28;20184;-78
2021/07/23 00:28:42;;;;;;;12.10;4.90;;;24.30;99.90;;;;;;5047297;28;20683;-76
2021/07/23 00:31:09;;;;;;;7.80;4.50;;;24.30;99.90;;;;;;5048724;28;20211;-75
2021/07/23 00:33:35;;;;;;;10.55;4.82;;;24.20;99.90;;;;;;5040479;28;20187;-75
2021/07/23 00:36:01;;;;;;;6.78;4.43;;;24.20;99.90;;;;;;5044416;28;20783;-78
2021/07/23 00:38:28;;;;;;;14.00;4.97;;;24.20;99.90;;;;;;5038812;28;20188;-76
2021/07/23 00:40:54;;;;;;;10.13;4.97;;;24.10;99.90;;;;;;5043766;28;20286;-77
2021/07/23 00:43:20;;;;;;;13.18;4.72;;;24.00;99.90;;;;;;5026850;28;20191;-75
2021/07/23 00:45:47;;;;;;;11.20;4.95;;;24.00;99.90;;;;;;5025452;28;20207;-76
2021/07/23 00:48:15;;;;;;;10.90;4.70;;;24.00;99.90;;;;;;5042372;28;20277;-77
2021/07/23 00:50:48;;;;;;;11.73;4.93;;;24.00;99.90;;;;;;5034283;28;20188;-75
2021/07/23 00:53:15;;;;;;;9.65;4.90;;;24.00;99.90;;;;;;5058065;28;20810;-76
2021/07/23 00:55:45;;;;;;;15.83;5.07;;;23.90;99.90;;;;;;5056231;28;20223;-76
2021/07/23 00:58:13;;;;;;;11.37;5.30;;;23.90;99.90;;;;;;5041417;28;20233;-77
2021/07/23 01:00:40;;;;;;;15.93;6.03;;;23.90;99.90;;;;;;5026681;28;20187;-76
2021/07/23 01:03:06;;;;;;;12.60;5.13;;;23.90;99.90;;;;;;5022792;28;20724;-79
2021/07/23 01:05:35;;;;;;;11.50;5.23;;;24.00;99.90;;;;;;5045415;28;20183;-76
2021/07/23 01:08:02;;;;;;;9.23;4.87;;;24.00;99.90;;;;;;5043910;28;21042;-79
2021/07/23 01:10:28;;;;;;;8.02;4.85;;;24.00;99.90;;;;;;5040988;28;20199;-77
2021/07/23 01:12:55;;;;;;;13.83;5.50;;;24.00;99.90;;;;;;5043448;28;20741;-78
2021/07/23 01:15:21;;;;;;;10.63;5.20;;;24.00;99.90;;;;;;5040258;28;20207;-77
2021/07/23 01:17:48;;;;;;;10.52;5.13;;;23.90;99.90;;;;;;5043025;28;20222;-78
2021/07/23 01:20:26;;;;;;;11.33;4.80;;;23.90;99.90;;;;;;5037258;28;20232;-76
2021/07/23 01:22:56;;;;;;;10.32;4.32;;;24.00;99.90;;;;;;5037171;28;20638;-75
2021/07/23 01:25:23;;;;;;;10.73;5.05;;;24.00;99.90;;;;;;5045188;28;20278;-77
2021/07/23 01:27:51;;;;;;;10.53;4.50;;;24.00;99.90;;;;;;5025417;28;20317;-78
2021/07/23 01:30:22;;;;;;;8.87;4.10;;;23.90;99.90;;;;;;5043469;28;20192;-75
2021/07/23 01:32:49;;;;;;;9.37;4.43;;;23.90;99.90;;;;;;5056081;28;20188;-78
2021/07/23 01:35:15;;;;;;;11.02;4.28;;;23.90;99.90;;;;;;5042567;28;20234;-76
2021/07/23 01:37:45;;;;;;;11.60;4.43;;;23.90;99.90;;;;;;5022563;28;20188;-76
2021/07/23 01:40:15;;;;;;;8.80;4.93;;;23.90;99.90;;;;;;5043437;28;20202;-74
2021/07/23 01:42:44;;;;;;;6.07;4.40;;;23.80;99.90;;;;;;5059291;28;20294;-76
2021/07/23 01:45:12;;;;;;;10.27;4.67;;;23.80;99.90;;;;;;5042292;28;20195;-75
2021/07/23 01:47:39;;;;;;;11.10;4.90;;;23.90;99.90;;;;;;5042568;28;20187;-76
2021/07/23 01:50:06;;;;;;;10.77;4.63;;;23.80;99.90;;;;;;5026543;28;20711;-76
2021/07/23 01:52:33;;;;;;;14.00;5.10;;;23.80;99.90;;;;;;5031200;28;20187;-74
2021/07/23 01:54:59;;;;;;;6.68;4.50;;;23.70;99.90;;;;;;5037902;28;20214;-75
2021/07/23 01:57:25;;;;;;;8.50;4.83;;;23.60;99.90;;;;;;5026001;28;20180;-76
2021/07/23 01:59:52;;;;;;;8.93;4.90;;;23.50;99.90;;;;;;5042160;28;20280;-75
2021/07/23 02:02:18;;;;;;;10.90;4.50;;;23.60;99.90;;;;;;5035933;28;20198;-77
2021/07/23 02:04:44;;;;;;;12.98;4.53;;;23.60;99.90;;;;;;5022403;28;20870;-77
2021/07/23 02:07:10;;;;;;;11.90;4.80;;;23.50;99.90;;;;;;5041077;28;20184;-77
2021/07/23 02:09:37;;;;;;;9.63;4.70;;;23.60;99.90;;;;;;5022067;28;20286;-76
2021/07/23 02:12:03;;;;;;;11.30;4.57;;;23.50;99.90;;;;;;5043417;28;20197;-77
2021/07/23 02:14:30;;;;;;;14.77;5.63;;;23.50;99.90;;;;;;5040700;28;20215;-77
2021/07/23 02:16:59;;;;;;;10.17;5.23;;;23.40;99.90;;;;;;5039766;28;20194;-75
2021/07/23 02:19:25;;;;;;;11.20;4.70;;;23.40;99.90;;;;;;5024985;28;20176;-75
2021/07/23 02:21:51;;;;;;;7.93;4.70;;;23.40;99.90;;;;;;5037657;28;20199;-76
2021/07/23 02:24:18;;;;;;;12.80;5.63;;;23.50;99.90;;;;;;5035212;28;22183;-75
2021/07/23 02:26:46;;;;;;;9.70;5.37;;;23.50;99.90;;;;;;5036528;28;21452;-74
2021/07/23 02:29:13;;;;;;;11.13;5.27;;;23.40;99.90;;;;;;5046023;28;20184;-78
2021/07/23 02:31:39;;;;;;;14.03;5.33;;;23.40;99.90;;;;;;5041968;28;20241;-75
2021/07/23 02:34:05;;;;;;;14.53;5.40;;;23.40;99.90;;;;;;5043761;28;20211;-77
2021/07/23 02:36:31;;;;;;;8.50;5.10;;;23.50;99.90;;;;;;5057832;28;20944;-77
2021/07/23 02:38:58;;;;;;;9.40;5.10;;;23.50;99.90;;;;;;5025021;28;20191;-75
2021/07/23 02:41:24;;;;;;;13.60;5.20;;;23.50;99.90;;;;;;5041030;28;20190;-77
2021/07/23 02:43:51;;;;;;;7.47;4.50;;;23.50;99.90;;;;;;5025487;28;20246;-75
2021/07/23 02:46:17;;;;;;;9.70;5.10;;;23.40;99.90;;;;;;5041089;28;20204;-74
2021/07/23 02:48:43;;;;;;;13.87;5.33;;;23.40;99.90;;;;;;5038899;28;20200;-77
2021/07/23 02:51:11;;;;;;;9.47;4.93;;;23.40;99.90;;;;;;5045883;28;20210;-77
2021/07/23 02:53:37;;;;;;;11.57;4.83;;;23.40;99.90;;;;;;5052118;28;20483;-76
2021/07/23 02:56:04;;;;;;;15.20;5.27;;;23.40;99.90;;;;;;5035147;28;20221;-78
2021/07/23 02:58:31;;;;;;;12.47;5.33;;;23.40;99.90;;;;;;5041997;28;20189;-76
2021/07/23 03:00:57;;;;;;;8.73;4.70;;;23.40;99.90;;;;;;5042358;28;20183;-77
2021/07/23 03:03:23;;;;;;;13.63;5.13;;;23.40;99.90;;;;;;5042477;28;20195;-78
2021/07/23 03:05:49;;;;;;;9.70;4.97;;;23.30;99.90;;;;;;5022851;28;20199;-76
2021/07/23 03:08:15;;;;;;;8.97;4.77;;;23.30;99.90;;;;;;5044476;28;20624;-74
2021/07/23 03:10:42;;;;;;;9.10;4.57;;;23.30;99.90;;;;;;5052107;28;20191;-75
2021/07/23 03:13:08;;;;;;;11.00;5.03;;;23.30;99.90;;;;;;5041302;28;20709;-76
2021/07/23 03:15:34;;;;;;;11.27;5.00;;;23.30;99.90;;;;;;5046096;28;20203;-77
2021/07/23 03:18:00;;;;;;;11.87;5.00;;;23.20;99.90;;;;;;5039721;28;20186;-76
2021/07/23 03:20:28;;;;;;;11.07;4.73;;;23.20;99.90;;;;;;5043095;28;20184;-75
2021/07/23 03:22:54;;;;;;;8.87;4.33;;;23.20;99.90;;;;;;5044253;28;20648;-76
2021/07/23 03:25:20;;;;;;;12.80;5.00;;;23.20;99.90;;;;;;5030707;28;20302;-77
2021/07/23 03:27:46;;;;;;;12.77;5.30;;;23.20;99.90;;;;;;5039050;28;20227;-76
2021/07/23 03:30:14;;;;;;;13.73;5.87;;;23.30;99.90;;;;;;5041799;28;20196;-76
2021/07/23 03:32:41;;;;;;;11.47;5.17;;;23.30;99.90;;;;;;5041671;28;20543;-76
2021/07/23 03:35:08;;;;;;;13.27;5.60;;;23.30;99.90;;;;;;5024223;28;20211;-76
2021/07/23 03:37:35;;;;;;;11.30;5.00;;;23.20;99.90;;;;;;5026063;28;20262;-74
2021/07/23 03:40:03;;;;;;;13.47;5.23;;;23.30;99.90;;;;;;5037733;28;20188;-76
2021/07/23 03:42:31;;;;;;;7.07;4.47;;;23.20;99.90;;;;;;5022857;28;20200;-76
2021/07/23 03:44:57;;;;;;;10.30;5.27;;;23.20;99.90;;;;;;5040981;28;20195;-75
2021/07/23 03:47:24;;;;;;;12.63;4.37;;;23.30;99.90;;;;;;5025827;28;20200;-76
2021/07/23 03:49:51;;;;;;;10.40;5.13;;;23.30;99.90;;;;;;5040957;28;20238;-75
2021/07/23 03:52:17;;;;;;;7.63;4.60;;;23.40;99.90;;;;;;5045153;28;20184;-76
2021/07/23 03:54:43;;;;;;;8.30;4.83;;;23.50;99.90;;;;;;5038933;28;20258;-75
2021/07/23 03:57:09;;;;;;;8.93;4.93;;;23.50;99.90;;;;;;5037664;28;20199;-77
2021/07/23 03:59:36;;;;;;;10.02;4.53;;;23.60;99.90;;;;;;5047715;28;20233;-75
2021/07/23 04:02:03;;;;;;;10.83;5.00;;;23.60;99.90;;;;;;5047509;28;20619;-75
2021/07/23 04:04:30;;;;;;;9.77;4.50;;;23.60;99.90;;;;;;5059479;28;20199;-77
2021/07/23 04:07:00;;;;;;;8.97;4.73;;;23.60;99.90;;;;;;5047627;28;20183;-77
2021/07/23 04:09:28;;;;;;;13.40;4.30;;;23.60;99.90;;;;;;5045663;28;21001;-76
2021/07/23 04:11:54;;;;;;;10.43;4.83;;;23.60;99.90;;;;;;5042971;28;20195;-74
2021/07/23 04:14:22;;;;;;;12.13;4.60;;;23.60;99.90;;;;;;5062635;28;20206;-75
2021/07/23 04:16:50;;;;;;;24.57;4.73;;;23.60;99.90;;;;;;5045845;28;20184;-76
2021/07/23 04:19:17;;;;;;;12.67;4.87;;;23.70;99.90;;;;;;5049817;28;20183;-76
2021/07/23 04:21:44;;;;;;;9.57;4.65;;;23.70;99.90;;;;;;5044499;28;20216;-75
2021/07/23 04:24:11;;;;;;;9.80;4.20;;;23.70;99.90;;;;;;5045020;28;20191;-76
2021/07/23 04:26:38;;;;;;;6.07;4.05;;;23.80;99.90;;;;;;5040853;28;20179;-78
2021/07/23 04:29:04;;;;;;;8.43;4.40;;;23.80;99.90;;;;;;5026129;28;20186;-77
2021/07/23 04:31:31;;;;;;;8.30;3.83;;;23.80;99.90;;;;;;5044558;28;20202;-75
2021/07/23 04:33:59;;;;;;;8.93;4.73;;;23.90;99.90;;;;;;5062509;28;20481;-74
2021/07/23 04:36:27;;;;;;;11.35;4.55;;;23.90;99.90;;;;;;5028560;28;20618;-75
2021/07/23 04:38:53;;;;;;;8.77;4.77;;;24.00;99.90;;;;;;5047223;28;20184;-75
2021/07/23 04:41:20;;;;;;;7.50;4.25;;;24.00;99.90;;;;;;5043148;28;20176;-74
2021/07/23 04:43:46;;;;;;;10.48;5.03;;;24.10;99.90;;;;;;5060111;28;20517;-75
2021/07/23 04:46:14;;;;;;;11.02;4.82;;;24.10;99.90;;;;;;5026215;28;20296;-73
2021/07/23 04:48:42;;;;;;;10.52;5.00;;;24.10;99.90;;;;;;5045052;28;20215;-74
2021/07/23 04:51:09;;;;;;;7.18;4.18;;;24.20;99.90;;;;;;5062991;28;20804;-75
2021/07/23 04:53:35;;;;;;;7.65;4.57;;;24.30;99.90;;;;;;5045762;28;20191;-74
2021/07/23 04:56:04;;;;;;;10.88;4.88;;;24.30;99.90;;;;;;5041855;28;20207;-75
2021/07/23 04:58:31;;;;;;;11.13;4.78;;;24.30;99.90;;;;;;5038265;28;20738;-74
2021/07/23 05:00:59;;;;;;;8.65;4.82;;;24.40;99.90;;;;;;5044866;28;20191;-75
2021/07/23 05:03:36;;;;;;;8.38;4.60;;;24.40;99.90;;;;;;5026317;28;20757;-75
2021/07/23 05:06:06;;;;;;;10.07;4.72;;;24.50;99.90;;;;;;5023685;28;20230;-73
2021/07/23 05:08:35;;;;;;;9.45;4.45;;;24.50;99.90;;;;;;5029064;28;20508;-74
2021/07/23 05:11:06;;;;;;;9.38;4.82;;;24.60;99.90;;;;;;5028282;28;20191;-75
2021/07/23 05:13:34;;;;;;;11.77;5.15;;;24.60;99.90;;;;;;5044566;28;20897;-74
2021/07/23 05:16:03;;;;;;;10.55;4.82;;;24.70;99.90;;;;;;5045104;28;20298;-74
2021/07/23 05:18:30;;;;;;;13.60;5.63;;;24.70;99.90;;;;;;5040763;28;20187;-75
2021/07/23 05:20:57;;;;;;;8.23;5.13;;;24.80;99.90;;;;;;5042094;28;20187;-76
2021/07/23 05:23:25;;;;;;;15.07;5.68;;;24.90;99.90;;;;;;5043190;28;20237;-74
2021/07/23 05:25:51;;;;;;;10.80;6.03;;;24.90;99.90;;;;;;5028219;28;21000;-74
2021/07/23 05:28:18;;;;;;;10.63;5.22;;;25.00;99.90;;;;;;5057069;28;20845;-73
2021/07/23 05:30:44;;;;;;;15.27;5.90;;;25.10;99.90;;;;;;5023311;28;20872;-73
2021/07/23 05:33:11;;;;;;;13.73;5.80;;;25.20;99.90;;;;;;5028184;28;20263;-75
2021/07/23 05:35:37;;;;;;;10.25;5.88;;;25.30;99.90;;;;;;5027441;28;20207;-74
2021/07/23 05:38:03;;;;;;;15.27;6.30;;;25.30;99.90;;;;;;5025534;28;20274;-73
2021/07/23 05:40:31;;;;;;;12.32;6.22;;;25.40;99.90;;;;;;5042775;28;20179;-73
2021/07/23 05:42:58;;;;;;;11.55;6.28;;;25.40;99.90;;;;;;5026181;28;20187;-73
2021/07/23 05:45:24;;;;;;;12.10;6.10;;;25.40;99.90;;;;;;5044016;28;20871;-75
2021/07/23 05:47:50;;;;;;;12.23;6.03;;;25.50;99.90;;;;;;5043140;28;20200;-73
2021/07/23 05:50:16;;;;;;;18.65;6.90;;;25.50;99.90;;;;;;5042773;28;20192;-74
2021/07/23 05:52:43;;;;;;;17.40;6.70;;;25.70;99.90;;;;;;5060115;28;20241;-76
2021/07/23 05:55:09;;;;;;;17.58;7.63;;;25.80;99.90;;;;;;5025863;28;20657;-75
2021/07/23 05:57:36;;;;;;;11.82;6.57;;;25.90;99.90;;;;;;5027363;28;20172;-74
2021/07/23 06:00:06;;;;;;;16.75;6.72;;;26.00;99.90;;;;;;5033428;28;20258;-73
2021/07/23 06:02:32;;;;;;;14.43;7.18;;;25.90;99.90;;;;;;5043930;28;20757;-73
2021/07/23 06:05:00;;;;;;;15.27;6.95;;;26.00;99.90;;;;;;5042682;28;20199;-73
2021/07/23 06:07:27;;;;;;;14.88;6.85;;;26.00;99.90;;;;;;5044302;28;20195;-73
2021/07/23 06:09:53;;;;;;;20.08;7.93;;;26.20;99.90;;;;;;5043715;28;20202;-74
2021/07/23 06:12:19;;;;;;;12.77;7.13;;;26.30;99.90;;;;;;5027769;28;20183;-73
2021/07/23 06:14:45;;;;;;;16.20;7.05;;;26.30;99.90;;;;;;5043065;28;20211;-74
2021/07/23 06:17:12;;;;;;;16.65;6.97;;;26.40;99.90;;;;;;5023234;28;20177;-75
2021/07/23 06:19:38;;;;;;;14.50;6.95;;;26.50;99.90;;;;;;5027475;28;20211;-75
2021/07/23 06:22:05;;;;;;;15.48;7.07;;;26.50;99.90;;;;;;5041136;28;20189;-75
2021/07/23 06:24:33;;;;;;;17.23;6.90;;;26.60;99.90;;;;;;5044360;28;20262;-74
2021/07/23 06:26:59;;;;;;;16.23;7.20;;;26.70;99.90;;;;;;5041258;28;20187;-75
2021/07/23 06:29:25;;;;;;;10.82;6.22;;;26.60;99.90;;;;;;5020961;28;20279;-73
2021/07/23 06:31:57;;;;;;;12.20;6.78;;;26.70;99.90;;;;;;5038439;28;20291;-75
2021/07/23 06:34:23;;;;;;;18.33;6.35;;;26.70;99.90;;;;;;5041692;28;20211;-75
2021/07/23 06:36:49;;;;;;;14.55;6.43;;;26.70;99.90;;;;;;5061597;28;20273;-73
2021/07/23 06:39:15;;;;;;;14.27;6.47;;;26.80;99.90;;;;;;5041363;28;20303;-74
2021/07/23 06:41:43;;;;;;;16.63;6.18;;;26.80;99.90;;;;;;5042692;28;20234;-74
2021/07/23 06:44:09;;;;;;;14.27;7.07;;;27.00;99.90;;;;;;5042175;28;20190;-77
2021/07/23 06:46:37;;;;;;;19.42;6.38;;;27.10;99.90;;;;;;5045490;28;20207;-74
2021/07/23 06:49:03;;;;;;;17.75;6.75;;;27.10;99.90;;;;;;5043387;28;20190;-74
2021/07/23 06:51:30;;;;;;;16.10;7.30;;;27.20;99.90;;;;;;5025109;28;20210;-76
2021/07/23 06:53:58;;;;;;;13.50;7.57;;;27.20;99.90;;;;;;5042892;28;20195;-74
2021/07/23 06:56:25;;;;;;;12.63;6.68;;;27.20;99.90;;;;;;5042157;28;20195;-74
2021/07/23 06:58:51;;;;;;;21.70;7.80;;;27.20;99.90;;;;;;5041085;28;20190;-77
2021/07/23 07:01:18;;;;;;;15.73;7.10;;;27.30;99.90;;;;;;5030634;28;21017;-73
2021/07/23 07:03:44;;;;;;;12.68;7.38;;;27.40;99.90;;;;;;5025801;28;20270;-75
2021/07/23 07:06:11;;;;;;;14.20;6.95;;;27.40;99.90;;;;;;5041470;28;20214;-73
2021/07/23 07:08:37;;;;;;;15.07;7.10;;;27.40;99.90;;;;;;5043227;28;20191;-75
2021/07/23 07:11:03;;;;;;;17.90;7.28;;;27.50;99.90;;;;;;5041007;28;20211;-74
2021/07/23 07:13:30;;;;;;;15.95;7.28;;;27.60;99.90;;;;;;5055321;28;20175;-73
2021/07/23 07:15:56;;;;;;;13.60;6.70;;;27.70;99.90;;;;;;5038820;28;20273;-74
2021/07/23 07:18:23;;;;;;;16.52;7.68;;;27.70;99.90;;;;;;5041828;28;20184;-74
2021/07/23 07:20:49;;;;;;;17.83;7.57;;;27.70;99.90;;;;;;5040614;28;20272;-75
2021/07/23 07:23:15;;;;;;;21.60;7.90;;;27.80;99.90;;;;;;5056076;28;20187;-77
2021/07/23 07:25:41;;;;;;;13.85;7.25;;;27.80;99.90;;;;;;5023525;28;20204;-75
2021/07/23 07:28:08;;;;;;;16.88;6.88;;;28.00;99.90;;;;;;5040160;28;20306;-74
2021/07/23 07:30:37;;;;;;;13.57;7.50;;;27.90;99.90;;;;;;5048313;28;20186;-74
2021/07/23 07:33:04;;;;;;;18.60;7.80;;;28.00;99.90;;;;;;5031399;28;20201;-75
2021/07/23 07:35:30;;;;;;;22.88;7.88;;;28.00;99.90;;;;;;5029557;28;20212;-74
2021/07/23 07:37:57;;;;;;;12.13;7.82;;;28.00;99.90;;;;;;5039906;28;20249;-74
2021/07/23 07:40:23;;;;;;;27.00;7.97;;;28.10;99.90;;;;;;5029432;28;20184;-75
2021/07/23 07:42:49;;;;;;;17.00;8.00;;;28.20;99.90;;;;;;5060878;28;20199;-74
2021/07/23 07:45:15;;;;;;;18.73;7.50;;;28.20;99.90;;;;;;5042707;28;20191;-74
2021/07/23 07:47:42;;;;;;;19.05;7.95;;;28.30;99.90;;;;;;5043870;28;20312;-76
2021/07/23 07:50:11;;;;;;;16.75;7.93;;;28.20;99.90;;;;;;5043203;28;20195;-76
2021/07/23 07:52:37;;;;;;;15.60;8.48;;;28.30;99.90;;;;;;5044205;28;20191;-74
2021/07/23 07:55:04;;;;;;;21.05;8.85;;;28.30;99.90;;;;;;5024912;28;20298;-75
2021/07/23 07:57:31;;;;;;;16.60;9.45;;;28.50;99.90;;;;;;5039738;28;20191;-73
2021/07/23 07:59:58;;;;;;;19.88;8.93;;;28.40;99.90;;;;;;5027640;28;20185;-76
2021/07/23 08:02:26;;;;;;;18.95;8.88;;;28.50;99.90;;;;;;5038091;28;20321;-73
2021/07/23 08:04:52;;;;;;;19.02;9.10;;;28.60;99.90;;;;;;5021478;28;20246;-77
2021/07/23 08:07:23;;;;;;;21.15;9.45;;;28.70;99.90;;;;;;5027124;28;20725;-76
2021/07/23 08:09:53;;;;;;;18.55;10.50;;;28.80;99.90;;;;;;5055715;28;20192;-76
2021/07/23 08:12:20;;;;;;;18.25;9.35;;;28.80;99.90;;;;;;5048162;28;20176;-74
2021/07/23 08:14:47;;;;;;;19.17;9.88;;;28.80;99.90;;;;;;5042350;28;20497;-74
2021/07/23 08:17:15;;;;;;;23.38;10.18;;;28.80;99.90;;;;;;5041987;28;20211;-74
2021/07/23 08:19:41;;;;;;;20.52;9.23;;;28.80;99.90;;;;;;5027100;28;20184;-72
2021/07/23 08:22:08;;;;;;;26.35;10.40;;;28.90;99.90;;;;;;5047875;28;20271;-76
2021/07/23 08:24:36;;;;;;;25.90;9.80;;;28.90;99.90;;;;;;5042109;28;20196;-75
2021/07/23 08:27:03;;;;;;;22.10;9.30;;;29.00;99.90;;;;;;5044951;28;20601;-74
2021/07/23 08:29:30;;;;;;;20.00;8.98;;;29.00;99.90;;;;;;5042000;28;20187;-77
2021/07/23 08:32:09;;;;;;;18.23;9.13;;;29.10;99.90;;;;;;5041481;28;20186;-77
2021/07/23 08:34:36;;;;;;;21.38;10.07;;;29.20;99.90;;;;;;5027098;28;20611;-76
2021/07/23 08:37:03;;;;;;;19.13;9.38;;;29.10;99.90;;;;;;5041187;28;20180;-77
2021/07/23 08:39:29;;;;;;;20.33;9.40;;;29.30;99.90;;;;;;5038556;28;20184;-75
2021/07/23 08:41:56;;;;;;;18.58;9.30;;;29.30;99.90;;;;;;5027558;28;20187;-77
2021/07/23 08:44:25;;;;;;;15.18;8.82;;;29.30;99.90;;;;;;5040512;28;20463;-75
2021/07/23 08:46:53;;;;;;;21.95;10.07;;;29.40;99.90;;;;;;5039603;28;20211;-76
2021/07/23 08:49:20;;;;;;;21.20;9.57;;;29.30;99.90;;;;;;5040574;28;20348;-75
2021/07/23 08:51:51;;;;;;;22.13;9.52;;;29.40;99.90;;;;;;5028393;28;20196;-77
2021/07/23 08:54:19;;;;;;;23.25;10.40;;;29.50;99.90;;;;;;5058294;28;20184;-77
2021/07/23 08:56:49;;;;;;;24.83;10.20;;;29.40;99.90;;;;;;5024405;28;20194;-76
2021/07/23 08:59:15;;;;;;;19.70;9.10;;;29.50;99.90;;;;;;5057852;28;20179;-75
2021/07/23 09:02:01;;;;;;;19.70;10.30;;;29.50;99.90;;;;;;5043802;28;20171;-76
2021/07/23 09:04:32;;;;;;;16.80;9.60;;;29.50;99.90;;;;;;5036155;28;20183;-76
2021/07/23 09:07:17;;;;;;;18.75;9.35;;;29.60;99.90;;;;;;5024658;28;20206;-76
2021/07/23 09:09:55;;;;;;;19.00;9.02;;;29.60;99.90;;;;;;5044990;28;20271;-77
2021/07/23 09:12:21;;;;;;;21.70;9.90;;;29.60;99.90;;;;;;5023990;28;20199;-75
2021/07/23 09:14:48;;;;;;;30.83;10.98;;;29.60;99.90;;;;;;5041404;28;20859;-76
2021/07/23 09:17:15;;;;;;;18.38;9.85;;;29.60;99.90;;;;;;5039030;28;20625;-77
2021/07/23 09:19:41;;;;;;;22.48;11.05;;;29.70;99.90;;;;;;5039739;28;20218;-74
2021/07/23 09:22:07;;;;;;;22.58;10.27;;;29.70;99.90;;;;;;5021993;28;20326;-77
2021/07/23 09:24:53;;;;;;;22.88;11.20;;;29.90;99.90;;;;;;5028260;28;20188;-76
2021/07/23 09:27:33;;;;;;;17.75;10.02;;;29.90;99.90;;;;;;5038709;28;20180;-77
2021/07/23 09:30:01;;;;;;;22.40;10.93;;;30.00;99.90;;;;;;5024483;28;20681;-75
2021/07/23 09:32:29;;;;;;;21.98;10.82;;;29.90;99.90;;;;;;5045309;28;20196;-74
2021/07/23 09:35:10;;;;;;;23.40;10.63;;;29.90;99.90;;;;;;5034760;28;20208;-77
2021/07/23 09:38:10;;;;;;;27.88;11.70;;;29.90;99.90;;;;;;5052652;28;20191;-76
2021/07/23 09:40:44;;;;;;;23.73;9.88;;;29.90;99.90;;;;;;5026060;28;20195;-75
2021/07/23 09:43:11;;;;;;;30.88;11.23;;;30.00;99.90;;;;;;5058291;28;20610;-75
2021/07/23 09:45:38;;;;;;;20.20;10.35;;;30.20;99.90;;;;;;5031333;28;20672;-77
2021/07/23 09:48:12;;;;;;;26.40;11.75;;;30.40;99.90;;;;;;5026260;28;20840;-75
2021/07/23 09:50:43;;;;;;;22.23;10.98;;;30.40;99.90;;;;;;5025801;28;20287;-76
2021/07/23 09:53:20;;;;;;;27.15;11.00;;;30.40;99.90;;;;;;5026199;28;20193;-78
2021/07/23 09:55:49;;;;;;;23.73;10.35;;;30.30;99.90;;;;;;5042314;28;20317;-75
2021/07/23 09:58:21;;;;;;;24.35;10.23;;;30.50;99.90;;;;;;5041982;28;20184;-77
2021/07/23 10:01:00;;;;;;;24.40;11.00;;;30.70;99.90;;;;;;5021232;28;20596;-77
2021/07/23 10:03:27;;;;;;;20.23;10.85;;;30.70;99.90;;;;;;5025336;28;20556;-78
2021/07/23 10:06:05;;;;;;;25.33;11.43;;;30.70;99.90;;;;;;5020980;28;20819;-77
2021/07/23 10:08:39;;;;;;;22.30;10.43;;;30.50;99.90;;;;;;5018420;28;20290;-73
2021/07/23 10:11:10;;;;;;;18.70;10.88;;;30.70;99.90;;;;;;5021925;28;20274;-73
2021/07/23 10:13:40;;;;;;;22.13;10.90;;;30.70;99.90;;;;;;5022696;28;20188;-74
2021/07/23 10:16:10;;;;;;;23.35;10.57;;;30.80;99.90;;;;;;5043595;28;20242;-76
2021/07/23 10:18:38;;;;;;;21.67;10.13;;;30.80;99.90;;;;;;5056876;28;20180;-74
2021/07/23 10:21:06;;;;;;;19.10;10.27;;;31.00;99.90;;;;;;5027725;28;20202;-74
2021/07/23 10:23:38;;;;;;;27.63;10.57;;;31.00;99.90;;;;;;5039505;28;20268;-72
2021/07/23 10:26:06;;;;;;;26.27;10.98;;;31.10;99.90;;;;;;5043272;28;20715;-74
2021/07/23 10:28:39;;;;;;;24.90;11.10;;;32.10;99.90;;;;;;5060578;28;20613;-74
2021/07/23 10:31:31;;;;;;;21.65;9.88;;;33.70;99.90;;;;;;5039127;28;20836;-74
2021/07/23 10:34:02;;;;;;;23.23;10.40;;;33.90;99.90;;;;;;5042084;28;20245;-75
2021/07/23 10:36:31;;;;;;;21.83;9.75;;;33.00;99.90;;;;;;5049407;28;20208;-75
2021/07/23 10:39:19;;;;;;;19.45;9.65;;;32.50;99.90;;;;;;5019022;28;20278;-73
2021/07/23 10:41:51;;;;;;;17.42;10.48;;;32.10;99.90;;;;;;5039351;28;20186;-75
2021/07/23 10:44:26;;;;;;;22.70;10.88;;;31.80;99.90;;;;;;5026867;28;20187;-75
2021/07/23 10:46:55;;;;;;;26.05;10.52;;;31.60;99.90;;;;;;5025610;28;20233;-74
2021/07/23 10:49:27;;;;;;;24.88;9.75;;;31.60;99.90;;;;;;5041736;28;20240;-73
2021/07/23 10:52:00;;;;;;;22.67;10.20;;;31.40;99.90;;;;;;5042011;28;20772;-74
2021/07/23 10:54:54;;;;;;;17.67;9.93;;;31.40;99.90;;;;;;5042092;28;20297;-74
2021/07/23 10:57:21;;;;;;;21.73;10.30;;;31.30;99.90;;;;;;5033987;28;20645;-75
2021/07/23 10:59:49;;;;;;;19.13;9.27;;;31.30;99.90;;;;;;5025997;28;20207;-76
2021/07/23 11:02:18;;;;;;;25.95;9.40;;;31.30;99.90;;;;;;5022976;28;20182;-73
2021/07/23 11:04:51;;;;;;;22.48;9.70;;;31.40;99.90;;;;;;5046515;28;20198;-76
2021/07/23 11:07:28;;;;;;;17.42;9.65;;;31.50;99.90;;;;;;5043724;28;20195;-78
2021/07/23 11:09:55;;;;;;;20.67;10.00;;;31.60;99.90;;;;;;5025179;28;20186;-75
2021/07/23 11:12:30;;;;;;;18.85;9.40;;;31.50;99.90;;;;;;5043207;28;20180;-77
2021/07/23 11:15:05;;;;;;;23.58;9.90;;;31.60;99.90;;;;;;5046328;28;20286;-79
2021/07/23 11:17:32;;;;;;;24.52;9.75;;;31.50;99.90;;;;;;5043732;28;20273;-78
2021/07/23 11:20:02;;;;;;;18.90;9.40;;;31.60;99.90;;;;;;5043710;28;21392;-74
2021/07/23 11:22:36;;;;;;;21.77;9.45;;;31.40;99.90;;;;;;5063660;28;20188;-77
2021/07/23 11:25:11;;;;;;;17.38;8.98;;;31.20;99.90;;;;;;5032296;28;20179;-74
2021/07/23 11:27:42;;;;;;;17.20;8.73;;;31.10;99.90;;;;;;5042861;28;20275;-77
2021/07/23 11:30:24;;;;;;;19.90;9.10;;;31.20;99.90;;;;;;5047097;28;20260;-77
2021/07/23 11:32:59;;;;;;;15.15;8.30;;;31.40;99.90;;;;;;5042806;28;20187;-74
2021/07/23 11:35:30;;;;;;;20.55;8.75;;;31.40;99.90;;;;;;5041742;28;20207;-78
2021/07/23 11:38:09;;;;;;;19.98;9.27;;;31.30;99.90;;;;;;5025243;28;20269;-77
2021/07/23 11:40:37;;;;;;;19.80;8.38;;;31.40;99.90;;;;;;5041214;28;20187;-76
2021/07/23 11:43:04;;;;;;;19.02;8.63;;;31.40;99.90;;;;;;5030140;28;20215;-76
2021/07/23 11:45:34;;;;;;;20.65;9.50;;;31.30;99.90;;;;;;5043518;28;20314;-73
2021/07/23 11:48:13;;;;;;;14.93;9.35;;;31.20;99.90;;;;;;5045834;28;20256;-76
2021/07/23 11:50:55;;;;;;;18.73;8.70;;;31.10;99.90;;;;;;5044217;28;20292;-77
2021/07/23 11:53:24;;;;;;;16.33;8.52;;;31.20;99.90;;;;;;5028710;28;20235;-73
2021/07/23 11:55:51;;;;;;;15.73;8.98;;;31.30;99.90;;;;;;5060524;28;20240;-77
2021/07/23 11:58:27;;;;;;;23.02;8.77;;;31.20;99.90;;;;;;5044960;28;20188;-78
2021/07/23 12:00:56;;;;;;;19.10;8.95;;;31.30;99.90;;;;;;5023411;28;20560;-77
2021/07/23 12:03:25;;;;;;;24.02;8.60;;;31.20;99.90;;;;;;5045199;28;20187;-77
2021/07/23 12:05:53;;;;;;;17.33;8.77;;;31.30;99.90;;;;;;5060703;28;20188;-77
2021/07/23 12:08:22;;;;;;;14.98;8.07;;;31.30;99.90;;;;;;5047537;28;20183;-76
2021/07/23 12:10:59;;;;;;;20.27;9.75;;;31.30;99.90;;;;;;5034628;28;20211;-76
2021/07/23 12:13:28;;;;;;;22.00;8.65;;;31.30;99.90;;;;;;5026278;28;20190;-75
2021/07/23 12:15:57;;;;;;;14.70;8.48;;;31.30;99.90;;;;;;5060979;28;20249;-77
2021/07/23 12:18:26;;;;;;;15.15;7.93;;;31.30;99.90;;;;;;5062321;28;20191;-77
2021/07/23 12:21:08;;;;;;;14.15;7.75;;;31.40;99.90;;;;;;5041428;28;20180;-77
2021/07/23 12:23:34;;;;;;;16.08;8.90;;;31.30;99.90;;;;;;5046570;28;20213;-75
2021/07/23 12:26:01;;;;;;;14.73;7.75;;;31.10;99.90;;;;;;5027972;28;20191;-77
2021/07/23 12:28:28;;;;;;;18.45;9.80;;;31.20;99.90;;;;;;5043934;28;20278;-77
2021/07/23 12:31:01;;;;;;;17.63;8.98;;;31.20;99.90;;;;;;5046220;28;20200;-78
2021/07/23 12:33:29;;;;;;;16.55;8.80;;;31.40;99.90;;;;;;5044129;28;20195;-76
2021/07/23 12:36:01;;;;;;;17.17;8.90;;;31.40;99.90;;;;;;5028463;28;20906;-76
2021/07/23 12:38:29;;;;;;;20.98;9.20;;;31.40;99.90;;;;;;5047558;28;20187;-75
2021/07/23 12:41:02;;;;;;;17.23;8.60;;;31.30;99.90;;;;;;5036592;28;20215;-78
2021/07/23 12:43:30;;;;;;;16.50;8.80;;;31.30;99.90;;;;;;5024113;28;20219;-77
2021/07/23 12:45:59;;;;;;;15.52;9.90;;;31.00;99.90;;;;;;5039189;28;20211;-75